sensor_id;sensor_type;location;lat;lon;timestamp;pressure;altitude;pressure_sealevel;temperature;humidity
29331;BME280;16331;52.528;13.342;2023-01-28T00:01:16;155959.91;;;0.82;100.00
29331;BME280;16331;52.528;13.342;2023-01-28T00:03:43;155942.22;;;0.75;100.00
29331;BME280;16331;52.528;13.342;2023-01-28T00:06:12;155966.72;;;0.84;100.00
29331;BME280;16331;52.528;13.342;2023-01-28T00:08:39;155976.25;;;0.88;100.00
29331;BME280;16331;52.528;13.342;2023-01-28T00:11:08;155940.91;;;0.75;100.00
29331;BME280;16331;52.528;13.342;2023-01-28T00:13:36;155940.91;;;0.75;100.00
29331;BME280;16331;52.528;13.342;2023-01-28T00:16:06;155938.16;;;0.74;100.00
29331;BME280;16331;52.528;13.342;2023-01-28T00:18:34;155927.31;;;0.70;100.00
29331;BME280;16331;52.528;13.342;2023-01-28T00:21:03;155898.78;;;0.59;100.00
29331;BME280;16331;52.528;13.342;2023-01-28T00:23:32;155894.66;;;0.58;100.00
29331;BME280;16331;52.528;13.342;2023-01-28T00:26:03;155900.09;;;0.60;100.00
29331;BME280;16331;52.528;13.342;2023-01-28T00:28:31;155894.66;;;0.58;100.00
29331;BME280;16331;52.528;13.342;2023-01-28T00:31:04;155919.16;;;0.67;100.00
29331;BME280;16331;52.528;13.342;2023-01-28T00:33:40;155908.25;;;0.63;100.00
29331;BME280;16331;52.528;13.342;2023-01-28T00:36:06;155897.41;;;0.59;100.00
29331;BME280;16331;52.528;13.342;2023-01-28T00:38:35;155902.84;;;0.61;100.00
29331;BME280;16331;52.528;13.342;2023-01-28T00:41:16;155930.00;;;0.71;100.00
29331;BME280;16331;52.528;13.342;2023-01-28T00:43:44;155912.31;;;0.64;100.00
29331;BME280;16331;52.528;13.342;2023-01-28T00:46:11;155853.94;;;0.43;100.00
29331;BME280;16331;52.528;13.342;2023-01-28T00:48:41;155859.38;;;0.45;100.00
29331;BME280;16331;52.528;13.342;2023-01-28T00:51:08;155872.91;;;0.50;100.00
29331;BME280;16331;52.528;13.342;2023-01-28T00:53:36;155875.66;;;0.51;100.00
29331;BME280;16331;52.528;13.342;2023-01-28T00:56:05;155859.38;;;0.45;100.00
29331;BME280;16331;52.528;13.342;2023-01-28T00:58:32;155867.53;;;0.48;100.00
29331;BME280;16331;52.528;13.342;2023-01-28T01:01:13;155872.91;;;0.50;100.00
29331;BME280;16331;52.528;13.342;2023-01-28T01:03:41;155870.22;;;0.49;100.00
29331;BME280;16331;52.528;13.342;2023-01-28T01:06:08;155860.69;;;0.45;100.00
29331;BME280;16331;52.528;13.342;2023-01-28T01:08:35;155938.16;;;0.74;100.00
29331;BME280;16331;52.528;13.342;2023-01-28T01:11:06;155942.22;;;0.75;100.00
29331;BME280;16331;52.528;13.342;2023-01-28T01:13:33;155966.72;;;0.84;100.00
29331;BME280;16331;52.528;13.342;2023-01-28T01:16:13;156019.75;;;1.04;100.00
29331;BME280;16331;52.528;13.342;2023-01-28T01:18:41;156007.47;;;0.99;100.00
29331;BME280;16331;52.528;13.342;2023-01-28T01:21:14;156018.38;;;1.03;100.00
29331;BME280;16331;52.528;13.342;2023-01-28T01:23:41;156065.94;;;1.21;100.00
29331;BME280;16331;52.528;13.342;2023-01-28T01:26:09;156076.81;;;1.25;100.00
29331;BME280;16331;52.528;13.342;2023-01-28T01:28:36;156104.00;;;1.35;100.00
29331;BME280;16331;52.528;13.342;2023-01-28T01:31:05;156140.75;;;1.48;100.00
29331;BME280;16331;52.528;13.342;2023-01-28T01:33:33;156165.22;;;1.58;100.00
29331;BME280;16331;52.528;13.342;2023-01-28T01:36:00;156119.00;;;1.40;100.00
29331;BME280;16331;52.528;13.342;2023-01-28T01:38:28;156080.94;;;1.26;100.00
29331;BME280;16331;52.528;13.342;2023-01-28T01:40:58;156112.16;;;1.38;100.00
29331;BME280;16331;52.528;13.342;2023-01-28T01:46:11;156076.81;;;1.25;100.00
29331;BME280;16331;52.528;13.342;2023-01-28T01:48:38;156067.31;;;1.21;100.00
29331;BME280;16331;52.528;13.342;2023-01-28T01:51:09;156094.47;;;1.31;100.00
29331;BME280;16331;52.528;13.342;2023-01-28T01:53:47;156163.84;;;1.57;100.00
29331;BME280;16331;52.528;13.342;2023-01-28T01:56:29;156162.53;;;1.57;100.00
29331;BME280;16331;52.528;13.342;2023-01-28T01:58:57;156147.53;;;1.51;100.00
29331;BME280;16331;52.528;13.342;2023-01-28T02:01:28;156138.00;;;1.47;100.00
29331;BME280;16331;52.528;13.342;2023-01-28T02:04:28;156169.28;;;1.59;100.00
29331;BME280;16331;52.528;13.342;2023-01-28T02:07:03;156223.75;;;1.79;100.00
29331;BME280;16331;52.528;13.342;2023-01-28T02:09:32;156186.97;;;1.66;100.00
29331;BME280;16331;52.528;13.342;2023-01-28T02:14:43;156218.28;;;1.77;100.00
29331;BME280;16331;52.528;13.342;2023-01-28T02:17:10;156174.75;;;1.61;100.00
29331;BME280;16331;52.528;13.342;2023-01-28T02:19:45;156172.03;;;1.60;100.00
29331;BME280;16331;52.528;13.342;2023-01-28T02:25:28;156220.97;;;1.78;100.00
29331;BME280;16331;52.528;13.342;2023-01-28T02:28:08;156215.53;;;1.76;100.00
29331;BME280;16331;52.528;13.342;2023-01-28T02:30:53;156188.34;;;1.66;100.00
29331;BME280;16331;52.528;13.342;2023-01-28T02:36:39;156246.81;;;1.88;100.00
29331;BME280;16331;52.528;13.342;2023-01-28T02:39:12;156216.91;;;1.77;100.00
29331;BME280;16331;52.528;13.342;2023-01-28T02:41:46;156233.22;;;1.83;100.00
29331;BME280;16331;52.528;13.342;2023-01-28T02:44:37;156163.84;;;1.57;100.00
29331;BME280;16331;52.528;13.342;2023-01-28T02:47:10;156234.59;;;1.83;100.00
29331;BME280;16331;52.528;13.342;2023-01-28T02:50:16;156199.22;;;1.70;100.00
29331;BME280;16331;52.528;13.342;2023-01-28T02:53:24;156193.75;;;1.68;100.00
29331;BME280;16331;52.528;13.342;2023-01-28T02:56:20;156212.81;;;1.75;100.00
29331;BME280;16331;52.528;13.342;2023-01-28T03:01:49;156139.38;;;1.48;100.00
29331;BME280;16331;52.528;13.342;2023-01-28T03:04:31;156193.75;;;1.68;100.00
29331;BME280;16331;52.528;13.342;2023-01-28T03:07:04;156177.44;;;1.62;100.00
29331;BME280;16331;52.528;13.342;2023-01-28T03:09:33;156196.50;;;1.69;100.00
29331;BME280;16331;52.528;13.342;2023-01-28T03:12:13;156167.91;;;1.59;100.00
29331;BME280;16331;52.528;13.342;2023-01-28T03:15:11;156136.69;;;1.47;100.00
29331;BME280;16331;52.528;13.342;2023-01-28T03:18:16;156180.19;;;1.63;100.00
29331;BME280;16331;52.528;13.342;2023-01-28T03:21:09;156173.38;;;1.61;100.00
29331;BME280;16331;52.528;13.342;2023-01-28T03:27:28;156191.06;;;1.67;100.00
29331;BME280;16331;52.528;13.342;2023-01-28T03:30:19;156218.28;;;1.77;100.00
29331;BME280;16331;52.528;13.342;2023-01-28T03:33:06;156210.13;;;1.74;100.00
29331;BME280;16331;52.528;13.342;2023-01-28T03:35:51;156208.75;;;1.74;100.00
29331;BME280;16331;52.528;13.342;2023-01-28T03:38:40;156225.06;;;1.80;100.00
29331;BME280;16331;52.528;13.342;2023-01-28T03:41:10;156245.50;;;1.87;100.00
29331;BME280;16331;52.528;13.342;2023-01-28T03:43:40;156196.50;;;1.69;100.00
29331;BME280;16331;52.528;13.342;2023-01-28T03:46:07;156250.91;;;1.89;100.00
29331;BME280;16331;52.528;13.342;2023-01-28T03:48:33;156214.19;;;1.76;100.00
29331;BME280;16331;52.528;13.342;2023-01-28T03:50:59;156218.28;;;1.77;100.00
29331;BME280;16331;52.528;13.342;2023-01-28T03:53:27;156212.81;;;1.75;100.00
29331;BME280;16331;52.528;13.342;2023-01-28T03:56:00;156280.84;;;2.00;100.00
29331;BME280;16331;52.528;13.342;2023-01-28T03:58:26;156263.16;;;1.94;100.00
29331;BME280;16331;52.528;13.342;2023-01-28T04:01:09;156267.28;;;1.95;100.00
29331;BME280;16331;52.528;13.342;2023-01-28T04:03:38;156260.44;;;1.93;100.00
29331;BME280;16331;52.528;13.342;2023-01-28T04:06:09;156308.06;;;2.10;100.00
29331;BME280;16331;52.528;13.342;2023-01-28T04:08:35;156302.63;;;2.08;100.00
29331;BME280;16331;52.528;13.342;2023-01-28T04:11:02;156361.16;;;2.30;100.00
29331;BME280;16331;52.528;13.342;2023-01-28T04:13:42;156310.81;;;2.11;100.00
29331;BME280;16331;52.528;13.342;2023-01-28T04:16:08;156380.22;;;2.37;100.00
29331;BME280;16331;52.528;13.342;2023-01-28T04:18:35;156344.84;;;2.24;100.00
29331;BME280;16331;52.528;13.342;2023-01-28T04:21:01;156302.63;;;2.08;100.00
29331;BME280;16331;52.528;13.342;2023-01-28T04:23:29;156325.75;;;2.17;100.00
29331;BME280;16331;52.528;13.342;2023-01-28T04:25:59;156353.00;;;2.27;100.00
29331;BME280;16331;52.528;13.342;2023-01-28T04:28:27;156291.75;;;2.04;100.00
29331;BME280;16331;52.528;13.342;2023-01-28T04:30:55;156321.69;;;2.15;100.00
29331;BME280;16331;52.528;13.342;2023-01-28T04:33:27;156299.91;;;2.07;100.00
29331;BME280;16331;52.528;13.342;2023-01-28T04:35:54;156299.91;;;2.07;100.00
29331;BME280;16331;52.528;13.342;2023-01-28T04:38:20;156310.81;;;2.11;100.00
29331;BME280;16331;52.528;13.342;2023-01-28T04:40:51;156381.56;;;2.37;100.00
29331;BME280;16331;52.528;13.342;2023-01-28T04:43:20;156355.69;;;2.28;100.00
29331;BME280;16331;52.528;13.342;2023-01-28T04:45:47;156332.59;;;2.19;100.00
29331;BME280;16331;52.528;13.342;2023-01-28T04:48:14;156393.81;;;2.42;100.00
29331;BME280;16331;52.528;13.342;2023-01-28T04:50:43;156416.97;;;2.50;100.00
29331;BME280;16331;52.528;13.342;2023-01-28T04:53:09;156414.25;;;2.49;100.00
29331;BME280;16331;52.528;13.342;2023-01-28T04:55:36;156422.41;;;2.52;100.00
29331;BME280;16331;52.528;13.342;2023-01-28T04:58:03;156425.13;;;2.53;100.00
29331;BME280;16331;52.528;13.342;2023-01-28T05:00:32;156422.41;;;2.52;100.00
29331;BME280;16331;52.528;13.342;2023-01-28T05:02:59;156430.59;;;2.55;100.00
29331;BME280;16331;52.528;13.342;2023-01-28T05:05:26;156430.59;;;2.55;100.00
29331;BME280;16331;52.528;13.342;2023-01-28T05:07:55;156472.78;;;2.71;100.00
29331;BME280;16331;52.528;13.342;2023-01-28T05:10:22;156429.22;;;2.55;100.00
29331;BME280;16331;52.528;13.342;2023-01-28T05:12:51;156442.81;;;2.60;100.00
29331;BME280;16331;52.528;13.342;2023-01-28T05:15:21;156468.69;;;2.69;100.00
29331;BME280;16331;52.528;13.342;2023-01-28T05:17:47;156402.03;;;2.45;100.00
29331;BME280;16331;52.528;13.342;2023-01-28T05:20:14;156419.66;;;2.51;100.00
29331;BME280;16331;52.528;13.342;2023-01-28T05:22:42;156389.72;;;2.40;100.00
29331;BME280;16331;52.528;13.342;2023-01-28T05:25:10;156406.09;;;2.46;100.00
29331;BME280;16331;52.528;13.342;2023-01-28T05:27:38;156400.63;;;2.44;100.00
29331;BME280;16331;52.528;13.342;2023-01-28T05:30:07;156433.28;;;2.56;100.00
29331;BME280;16331;52.528;13.342;2023-01-28T05:32:34;156414.25;;;2.49;100.00
29331;BME280;16331;52.528;13.342;2023-01-28T05:35:01;156372.03;;;2.34;100.00
29331;BME280;16331;52.528;13.342;2023-01-28T05:37:27;156430.59;;;2.55;100.00
29331;BME280;16331;52.528;13.342;2023-01-28T05:39:53;156430.59;;;2.55;100.00
29331;BME280;16331;52.528;13.342;2023-01-28T05:42:19;156474.16;;;2.71;100.00
29331;BME280;16331;52.528;13.342;2023-01-28T05:44:47;156419.66;;;2.51;100.00
29331;BME280;16331;52.528;13.342;2023-01-28T05:47:13;156440.13;;;2.59;100.00
29331;BME280;16331;52.528;13.342;2023-01-28T05:49:39;156463.25;;;2.67;100.00
29331;BME280;16331;52.528;13.342;2023-01-28T05:52:05;156506.81;;;2.83;100.00
29331;BME280;16331;52.528;13.342;2023-01-28T05:54:31;156493.25;;;2.78;100.00
29331;BME280;16331;52.528;13.342;2023-01-28T05:56:58;156471.47;;;2.70;100.00
29331;BME280;16331;52.528;13.342;2023-01-28T05:59:24;156487.78;;;2.76;100.00
29331;BME280;16331;52.528;13.342;2023-01-28T06:01:50;156460.53;;;2.66;100.00
29331;BME280;16331;52.528;13.342;2023-01-28T06:04:18;156494.56;;;2.79;100.00
29331;BME280;16331;52.528;13.342;2023-01-28T06:06:45;156453.75;;;2.64;100.00
29331;BME280;16331;52.528;13.342;2023-01-28T06:09:11;156414.25;;;2.49;100.00
29331;BME280;16331;52.528;13.342;2023-01-28T06:11:38;156416.97;;;2.50;100.00
29331;BME280;16331;52.528;13.342;2023-01-28T06:14:04;156358.47;;;2.29;100.00
29331;BME280;16331;52.528;13.342;2023-01-28T06:16:30;156358.47;;;2.29;100.00
29331;BME280;16331;52.528;13.342;2023-01-28T06:18:56;156335.31;;;2.20;100.00
29331;BME280;16331;52.528;13.342;2023-01-28T06:21:22;156422.41;;;2.52;100.00
29331;BME280;16331;52.528;13.342;2023-01-28T06:23:51;156403.34;;;2.45;100.00
29331;BME280;16331;52.528;13.342;2023-01-28T06:26:18;156438.75;;;2.58;100.00
29331;BME280;16331;52.528;13.342;2023-01-28T06:28:45;156425.13;;;2.53;100.00
29331;BME280;16331;52.528;13.342;2023-01-28T06:31:12;156468.69;;;2.69;100.00
29331;BME280;16331;52.528;13.342;2023-01-28T06:33:38;156479.63;;;2.73;100.00
29331;BME280;16331;52.528;13.342;2023-01-28T06:36:05;156535.44;;;2.94;100.00
29331;BME280;16331;52.528;13.342;2023-01-28T06:38:32;156433.28;;;2.56;100.00
29331;BME280;16331;52.528;13.342;2023-01-28T06:40:59;156457.81;;;2.65;100.00
29331;BME280;16331;52.528;13.342;2023-01-28T06:43:25;156422.41;;;2.52;100.00
29331;BME280;16331;52.528;13.342;2023-01-28T06:45:54;156412.88;;;2.49;100.00
29331;BME280;16331;52.528;13.342;2023-01-28T06:48:22;156455.06;;;2.64;100.00
29331;BME280;16331;52.528;13.342;2023-01-28T06:50:51;156471.47;;;2.70;100.00
29331;BME280;16331;52.528;13.342;2023-01-28T06:53:17;156464.63;;;2.68;100.00
29331;BME280;16331;52.528;13.342;2023-01-28T06:55:48;156490.50;;;2.77;100.00
29331;BME280;16331;52.528;13.342;2023-01-28T06:58:14;156525.91;;;2.90;100.00
29331;BME280;16331;52.528;13.342;2023-01-28T07:00:42;156498.66;;;2.80;100.00
29331;BME280;16331;52.528;13.342;2023-01-28T07:03:08;156418.34;;;2.51;100.00
29331;BME280;16331;52.528;13.342;2023-01-28T07:05:34;156463.25;;;2.67;100.00
29331;BME280;16331;52.528;13.342;2023-01-28T07:08:01;156495.94;;;2.79;100.00
29331;BME280;16331;52.528;13.342;2023-01-28T07:10:28;156498.66;;;2.80;100.00
29331;BME280;16331;52.528;13.342;2023-01-28T07:12:54;156510.91;;;2.85;100.00
29331;BME280;16331;52.528;13.342;2023-01-28T07:15:20;156451.00;;;2.63;100.00
29331;BME280;16331;52.528;13.342;2023-01-28T07:17:47;156388.41;;;2.40;100.00
29331;BME280;16331;52.528;13.342;2023-01-28T07:20:15;156392.47;;;2.41;100.00
29331;BME280;16331;52.528;13.342;2023-01-28T07:22:42;156408.81;;;2.47;100.00
29331;BME280;16331;52.528;13.342;2023-01-28T07:25:11;156487.78;;;2.76;100.00
29331;BME280;16331;52.528;13.342;2023-01-28T07:27:38;156536.78;;;2.94;100.00
29331;BME280;16331;52.528;13.342;2023-01-28T07:30:05;156539.53;;;2.95;100.00
29331;BME280;16331;52.528;13.342;2023-01-28T07:32:31;156476.84;;;2.72;100.00
29331;BME280;16331;52.528;13.342;2023-01-28T07:34:57;156457.81;;;2.65;100.00
29331;BME280;16331;52.528;13.342;2023-01-28T07:37:23;156480.94;;;2.74;100.00
29331;BME280;16331;52.528;13.342;2023-01-28T07:39:50;156436.03;;;2.57;100.00
29331;BME280;16331;52.528;13.342;2023-01-28T07:42:17;156497.31;;;2.80;100.00
29331;BME280;16331;52.528;13.342;2023-01-28T07:44:47;156517.75;;;2.87;100.00
29331;BME280;16331;52.528;13.342;2023-01-28T07:47:17;156569.50;;;3.07;100.00
29331;BME280;16331;52.528;13.342;2023-01-28T07:49:44;156512.28;;;2.85;100.00
29331;BME280;16331;52.528;13.342;2023-01-28T07:52:10;156538.16;;;2.95;100.00
29331;BME280;16331;52.528;13.342;2023-01-28T07:54:37;156520.44;;;2.88;100.00
29331;BME280;16331;52.528;13.342;2023-01-28T07:57:08;156542.22;;;2.96;100.00
29331;BME280;16331;52.528;13.342;2023-01-28T07:59:37;156606.28;;;3.20;100.00
29331;BME280;16331;52.528;13.342;2023-01-28T08:02:03;156564.03;;;3.05;100.00
29331;BME280;16331;52.528;13.342;2023-01-28T08:04:30;156564.03;;;3.05;100.00
29331;BME280;16331;52.528;13.342;2023-01-28T08:06:56;156534.06;;;2.93;100.00
29331;BME280;16331;52.528;13.342;2023-01-28T08:09:22;156517.75;;;2.87;100.00
29331;BME280;16331;52.528;13.342;2023-01-28T08:11:48;156495.94;;;2.79;100.00
29331;BME280;16331;52.528;13.342;2023-01-28T08:14:15;156524.53;;;2.90;100.00
29331;BME280;16331;52.528;13.342;2023-01-28T08:16:42;156538.16;;;2.95;100.00
29331;BME280;16331;52.528;13.342;2023-01-28T08:19:09;156599.47;;;3.18;100.00
29331;BME280;16331;52.528;13.342;2023-01-28T08:21:39;156568.09;;;3.06;100.00
29331;BME280;16331;52.528;13.342;2023-01-28T08:24:07;156762.97;;;3.78;100.00
29331;BME280;16331;52.528;13.342;2023-01-28T08:26:35;156748.00;;;3.72;100.00
29331;BME280;16331;52.528;13.342;2023-01-28T08:29:01;156572.19;;;3.08;100.00
29331;BME280;16331;52.528;13.342;2023-01-28T08:31:27;156476.84;;;2.72;100.00
29331;BME280;16331;52.528;13.342;2023-01-28T08:33:56;156581.75;;;3.11;100.00
29331;BME280;16331;52.528;13.342;2023-01-28T08:36:25;156576.28;;;3.09;100.00
29331;BME280;16331;52.528;13.342;2023-01-28T08:38:52;156579.03;;;3.10;100.00
29331;BME280;16331;52.528;13.342;2023-01-28T08:41:23;156576.28;;;3.09;100.00
29331;BME280;16331;52.528;13.342;2023-01-28T08:43:52;156589.91;;;3.14;100.00
29331;BME280;16331;52.528;13.342;2023-01-28T08:46:21;156599.47;;;3.18;100.00
29331;BME280;16331;52.528;13.342;2023-01-28T08:48:51;156592.66;;;3.15;100.00
29331;BME280;16331;52.528;13.342;2023-01-28T08:51:23;156577.66;;;3.10;100.00
29331;BME280;16331;52.528;13.342;2023-01-28T08:53:51;156497.31;;;2.80;100.00
29331;BME280;16331;52.528;13.342;2023-01-28T08:56:17;156501.41;;;2.81;100.00
29331;BME280;16331;52.528;13.342;2023-01-28T08:58:43;156509.56;;;2.84;100.00
29331;BME280;16331;52.528;13.342;2023-01-28T09:01:11;156613.09;;;3.23;100.00
29331;BME280;16331;52.528;13.342;2023-01-28T09:03:38;156645.75;;;3.35;100.00
29331;BME280;16331;52.528;13.342;2023-01-28T09:06:05;156666.22;;;3.42;100.00
29331;BME280;16331;52.528;13.342;2023-01-28T09:08:31;156896.63;;;4.27;100.00
29331;BME280;16331;52.528;13.342;2023-01-28T09:10:59;157078.03;;;4.94;100.00
29331;BME280;16331;52.528;13.342;2023-01-28T09:13:27;157046.66;;;4.82;100.00
29331;BME280;16331;52.528;13.342;2023-01-28T09:15:53;157269.16;;;5.64;100.00
29331;BME280;16331;52.528;13.342;2023-01-28T09:18:23;157390.75;;;6.09;100.00
29331;BME280;16331;52.528;13.342;2023-01-28T09:20:51;157235.03;;;5.51;99.21
29331;BME280;16331;52.528;13.342;2023-01-28T09:23:17;157007.06;;;4.68;95.26
29331;BME280;16331;52.528;13.342;2023-01-28T09:25:49;156892.53;;;4.25;93.46
29331;BME280;16331;52.528;13.342;2023-01-28T09:28:16;156817.53;;;3.98;96.99
29331;BME280;16331;52.528;13.342;2023-01-28T09:30:43;156719.34;;;3.62;100.00
29331;BME280;16331;52.528;13.342;2023-01-28T09:33:12;156692.13;;;3.52;100.00
29331;BME280;16331;52.528;13.342;2023-01-28T09:35:38;156709.84;;;3.58;100.00
29331;BME280;16331;52.528;13.342;2023-01-28T09:38:09;156787.53;;;3.87;100.00
29331;BME280;16331;52.528;13.342;2023-01-28T09:40:49;156852.97;;;4.11;100.00
29331;BME280;16331;52.528;13.342;2023-01-28T09:46:51;156765.72;;;3.79;100.00
29331;BME280;16331;52.528;13.342;2023-01-28T09:49:46;156754.78;;;3.75;100.00
29331;BME280;16331;52.528;13.342;2023-01-28T09:52:17;156746.63;;;3.72;100.00
29331;BME280;16331;52.528;13.342;2023-01-28T09:55:11;156825.69;;;4.01;100.00
29331;BME280;16331;52.528;13.342;2023-01-28T09:57:44;156791.63;;;3.88;100.00
29331;BME280;16331;52.528;13.342;2023-01-28T10:00:39;156677.09;;;3.46;100.00
29331;BME280;16331;52.528;13.342;2023-01-28T10:03:31;156825.69;;;4.01;100.00
29331;BME280;16331;52.528;13.342;2023-01-28T10:06:21;156779.34;;;3.84;100.00
29331;BME280;16331;52.528;13.342;2023-01-28T10:22:51;156709.84;;;3.58;100.00
29331;BME280;16331;52.528;13.342;2023-01-28T10:25:21;156810.66;;;3.95;100.00
29331;BME280;16331;52.528;13.342;2023-01-28T10:27:49;156776.59;;;3.83;100.00
29331;BME280;16331;52.528;13.342;2023-01-28T10:30:22;156764.34;;;3.78;100.00
29331;BME280;16331;52.528;13.342;2023-01-28T10:33:03;156798.41;;;3.91;100.00
29331;BME280;16331;52.528;13.342;2023-01-28T10:35:37;156776.59;;;3.83;100.00
29331;BME280;16331;52.528;13.342;2023-01-28T10:38:06;156911.59;;;4.32;97.38
29331;BME280;16331;52.528;13.342;2023-01-28T10:40:34;156932.09;;;4.40;96.47
29331;BME280;16331;52.528;13.342;2023-01-28T10:43:04;156940.25;;;4.43;96.03
29331;BME280;16331;52.528;13.342;2023-01-28T10:48:45;156859.78;;;4.13;97.80
29331;BME280;16331;52.528;13.342;2023-01-28T10:51:46;156870.72;;;4.17;97.95
29331;BME280;16331;52.528;13.342;2023-01-28T10:54:29;156914.34;;;4.33;97.13
29331;BME280;16331;52.528;13.342;2023-01-28T10:57:11;156836.63;;;4.05;96.90
29331;BME280;16331;52.528;13.342;2023-01-28T10:59:46;156906.16;;;4.30;97.46
29331;BME280;16331;52.528;13.342;2023-01-28T11:02:38;156842.03;;;4.07;97.74
29331;BME280;16331;52.528;13.342;2023-01-28T11:05:27;156877.50;;;4.20;98.00
29331;BME280;16331;52.528;13.342;2023-01-28T11:08:05;156918.44;;;4.35;95.08
29331;BME280;16331;52.528;13.342;2023-01-28T11:10:35;156919.78;;;4.35;96.61
29331;BME280;16331;52.528;13.342;2023-01-28T11:16:28;156779.34;;;3.84;100.00
29331;BME280;16331;52.528;13.342;2023-01-28T11:19:03;156743.91;;;3.71;100.00
29331;BME280;16331;52.528;13.342;2023-01-28T11:21:39;156764.34;;;3.78;100.00
29331;BME280;16331;52.528;13.342;2023-01-28T11:24:25;156765.72;;;3.79;100.00
29331;BME280;16331;52.528;13.342;2023-01-28T11:26:54;156793.00;;;3.89;100.00
29331;BME280;16331;52.528;13.342;2023-01-28T11:29:26;156806.59;;;3.94;100.00
29331;BME280;16331;52.528;13.342;2023-01-28T11:31:55;156762.97;;;3.78;100.00
29331;BME280;16331;52.528;13.342;2023-01-28T11:34:32;156730.28;;;3.66;100.00
29331;BME280;16331;52.528;13.342;2023-01-28T11:37:14;156652.59;;;3.37;100.00
29331;BME280;16331;52.528;13.342;2023-01-28T11:39:41;156660.78;;;3.40;100.00
29331;BME280;16331;52.528;13.342;2023-01-28T11:44:42;156738.44;;;3.69;100.00
29331;BME280;16331;52.528;13.342;2023-01-28T11:53:30;156790.25;;;3.88;100.00
29331;BME280;16331;52.528;13.342;2023-01-28T11:59:20;156716.63;;;3.61;100.00
29331;BME280;16331;52.528;13.342;2023-01-28T12:05:27;156667.56;;;3.43;100.00
29331;BME280;16331;52.528;13.342;2023-01-28T12:11:16;156685.28;;;3.49;100.00
29331;BME280;16331;52.528;13.342;2023-01-28T12:14:20;156732.97;;;3.67;100.00
29331;BME280;16331;52.528;13.342;2023-01-28T12:19:57;156768.44;;;3.80;100.00
29331;BME280;16331;52.528;13.342;2023-01-28T12:29:07;156794.31;;;3.89;100.00
29331;BME280;16331;52.528;13.342;2023-01-28T12:35:04;156773.88;;;3.82;100.00
29331;BME280;16331;52.528;13.342;2023-01-28T12:38:03;156787.53;;;3.87;100.00
29331;BME280;16331;52.528;13.342;2023-01-28T12:40:46;156809.34;;;3.95;100.00
29331;BME280;16331;52.528;13.342;2023-01-28T12:43:25;156822.97;;;4.00;100.00
29331;BME280;16331;52.528;13.342;2023-01-28T12:46:03;156776.59;;;3.83;100.00
29331;BME280;16331;52.528;13.342;2023-01-28T12:49:25;156734.34;;;3.67;100.00
29331;BME280;16331;52.528;13.342;2023-01-28T12:52:09;156757.53;;;3.76;100.00
29331;BME280;16331;52.528;13.342;2023-01-28T12:55:02;156765.72;;;3.79;100.00
29331;BME280;16331;52.528;13.342;2023-01-28T12:57:32;156762.97;;;3.78;100.00
29331;BME280;16331;52.528;13.342;2023-01-28T13:00:25;156750.69;;;3.73;100.00
29331;BME280;16331;52.528;13.342;2023-01-28T13:03:26;156675.78;;;3.46;100.00
29331;BME280;16331;52.528;13.342;2023-01-28T13:05:59;156743.91;;;3.71;100.00
29331;BME280;16331;52.528;13.342;2023-01-28T13:08:29;156799.78;;;3.91;100.00
29331;BME280;16331;52.528;13.342;2023-01-28T13:11:02;156719.34;;;3.62;100.00
29331;BME280;16331;52.528;13.342;2023-01-28T13:13:39;156805.25;;;3.93;100.00
29331;BME280;16331;52.528;13.342;2023-01-28T13:16:10;156769.81;;;3.80;100.00
29331;BME280;16331;52.528;13.342;2023-01-28T13:21:15;156812.06;;;3.96;100.00
29331;BME280;16331;52.528;13.342;2023-01-28T13:23:46;156861.16;;;4.14;100.00
29331;BME280;16331;52.528;13.342;2023-01-28T13:28:50;156866.63;;;4.16;100.00
29331;BME280;16331;52.528;13.342;2023-01-28T13:31:19;156867.94;;;4.16;100.00
29331;BME280;16331;52.528;13.342;2023-01-28T13:36:45;156821.59;;;3.99;100.00
29331;BME280;16331;52.528;13.342;2023-01-28T13:39:47;156756.16;;;3.75;100.00
29331;BME280;16331;52.528;13.342;2023-01-28T13:42:24;156837.97;;;4.05;100.00
29331;BME280;16331;52.528;13.342;2023-01-28T13:44:53;156858.44;;;4.13;100.00
29331;BME280;16331;52.528;13.342;2023-01-28T13:47:36;156846.13;;;4.08;100.00
29331;BME280;16331;52.528;13.342;2023-01-28T13:50:10;156835.25;;;4.04;100.00
29331;BME280;16331;52.528;13.342;2023-01-28T13:52:56;156828.41;;;4.02;100.00
29331;BME280;16331;52.528;13.342;2023-01-28T13:55:37;156793.00;;;3.89;100.00
29331;BME280;16331;52.528;13.342;2023-01-28T14:06:43;156761.63;;;3.77;100.00
29331;BME280;16331;52.528;13.342;2023-01-28T14:12:49;156704.38;;;3.56;100.00
29331;BME280;16331;52.528;13.342;2023-01-28T14:15:49;156664.84;;;3.42;100.00
29331;BME280;16331;52.528;13.342;2023-01-28T14:18:39;156732.97;;;3.67;100.00
29331;BME280;16331;52.528;13.342;2023-01-28T14:21:13;156787.53;;;3.87;100.00
29331;BME280;16331;52.528;13.342;2023-01-28T14:23:46;156839.34;;;4.06;97.67
29331;BME280;16331;52.528;13.342;2023-01-28T14:26:27;156813.44;;;3.96;98.69
29331;BME280;16331;52.528;13.342;2023-01-28T14:31:36;156782.06;;;3.85;99.32
29331;BME280;16331;52.528;13.342;2023-01-28T14:34:23;156705.75;;;3.57;100.00
29331;BME280;16331;52.528;13.342;2023-01-28T14:36:52;156794.31;;;3.89;100.00
29331;BME280;16331;52.528;13.342;2023-01-28T14:39:25;156793.00;;;3.89;99.97
29331;BME280;16331;52.528;13.342;2023-01-28T14:41:54;156806.59;;;3.94;98.34
29331;BME280;16331;52.528;13.342;2023-01-28T14:44:37;156776.59;;;3.83;98.07